sensor_id;sensor_type;location;lat;lon;timestamp;temperature;humidity
55331;DHT22;58851;42.984;20.336;2023-04-20T00:01:45;230.80;6502.40
55331;DHT22;58851;42.984;20.336;2023-04-20T00:04:11;230.80;6502.40
55331;DHT22;58851;42.984;20.336;2023-04-20T00:06:38;230.80;6502.40
55331;DHT22;58851;42.984;20.336;2023-04-20T00:09:03;230.80;6502.40
55331;DHT22;58851;42.984;20.336;2023-04-20T00:11:29;230.80;6502.40
55331;DHT22;58851;42.984;20.336;2023-04-20T00:13:55;230.80;6502.40
55331;DHT22;58851;42.984;20.336;2023-04-20T00:16:21;230.80;6502.40
55331;DHT22;58851;42.984;20.336;2023-04-20T00:18:48;230.80;6502.40
55331;DHT22;58851;42.984;20.336;2023-04-20T00:21:13;230.90;6502.40
55331;DHT22;58851;42.984;20.336;2023-04-20T00:23:40;230.80;6502.40
55331;DHT22;58851;42.984;20.336;2023-04-20T00:26:06;230.90;6502.40
55331;DHT22;58851;42.984;20.336;2023-04-20T00:28:32;230.90;6502.40
55331;DHT22;58851;42.984;20.336;2023-04-20T00:30:58;230.80;6502.40
55331;DHT22;58851;42.984;20.336;2023-04-20T00:33:24;230.80;6502.40
55331;DHT22;58851;42.984;20.336;2023-04-20T00:35:50;230.80;6502.40
55331;DHT22;58851;42.984;20.336;2023-04-20T00:38:16;230.70;6502.40
55331;DHT22;58851;42.984;20.336;2023-04-20T00:40:45;230.70;6502.40
55331;DHT22;58851;42.984;20.336;2023-04-20T00:43:18;230.60;6502.40
55331;DHT22;58851;42.984;20.336;2023-04-20T00:45:44;230.60;6502.40
55331;DHT22;58851;42.984;20.336;2023-04-20T00:48:11;230.50;6502.40
55331;DHT22;58851;42.984;20.336;2023-04-20T00:50:38;230.50;6502.40
55331;DHT22;58851;42.984;20.336;2023-04-20T00:53:05;230.50;6502.40
55331;DHT22;58851;42.984;20.336;2023-04-20T00:55:32;230.60;6502.40
55331;DHT22;58851;42.984;20.336;2023-04-20T00:57:58;230.60;6502.40
55331;DHT22;58851;42.984;20.336;2023-04-20T01:00:24;230.60;6502.40
55331;DHT22;58851;42.984;20.336;2023-04-20T01:02:50;230.50;6502.40
55331;DHT22;58851;42.984;20.336;2023-04-20T01:05:16;230.50;6502.40
55331;DHT22;58851;42.984;20.336;2023-04-20T01:07:42;230.50;6502.40
55331;DHT22;58851;42.984;20.336;2023-04-20T01:10:08;230.40;6502.40
55331;DHT22;58851;42.984;20.336;2023-04-20T01:12:34;230.50;6502.40
55331;DHT22;58851;42.984;20.336;2023-04-20T01:15:02;230.50;6502.40
55331;DHT22;58851;42.984;20.336;2023-04-20T01:17:30;230.50;6502.40
55331;DHT22;58851;42.984;20.336;2023-04-20T01:19:56;230.40;512.00
55331;DHT22;58851;42.984;20.336;2023-04-20T01:22:25;205.60;6502.40
55331;DHT22;58851;42.984;20.336;2023-04-20T01:24:51;205.50;6502.40
55331;DHT22;58851;42.984;20.336;2023-04-20T01:27:17;205.60;6502.40
55331;DHT22;58851;42.984;20.336;2023-04-20T01:29:44;205.60;6502.40
55331;DHT22;58851;42.984;20.336;2023-04-20T01:32:10;205.60;6502.40
55331;DHT22;58851;42.984;20.336;2023-04-20T01:34:36;205.70;6502.40
55331;DHT22;58851;42.984;20.336;2023-04-20T01:37:02;205.70;6502.40
55331;DHT22;58851;42.984;20.336;2023-04-20T01:39:34;230.40;6502.40
55331;DHT22;58851;42.984;20.336;2023-04-20T01:42:01;205.70;6502.40
55331;DHT22;58851;42.984;20.336;2023-04-20T01:44:26;205.70;6502.40
55331;DHT22;58851;42.984;20.336;2023-04-20T01:46:52;230.40;6502.40
55331;DHT22;58851;42.984;20.336;2023-04-20T01:49:18;230.40;6502.40
55331;DHT22;58851;42.984;20.336;2023-04-20T01:51:44;230.40;6502.40
55331;DHT22;58851;42.984;20.336;2023-04-20T01:54:10;230.40;6502.40
55331;DHT22;58851;42.984;20.336;2023-04-20T01:56:35;230.40;6502.40
55331;DHT22;58851;42.984;20.336;2023-04-20T01:59:01;205.70;486.40
55331;DHT22;58851;42.984;20.336;2023-04-20T02:01:27;205.60;6502.40
55331;DHT22;58851;42.984;20.336;2023-04-20T02:03:53;205.50;6502.40
55331;DHT22;58851;42.984;20.336;2023-04-20T02:06:18;205.50;6502.40
55331;DHT22;58851;42.984;20.336;2023-04-20T02:08:45;205.60;6502.40
55331;DHT22;58851;42.984;20.336;2023-04-20T02:11:10;205.50;6502.40
55331;DHT22;58851;42.984;20.336;2023-04-20T02:13:37;205.30;460.80
55331;DHT22;58851;42.984;20.336;2023-04-20T02:16:03;205.30;6502.40
55331;DHT22;58851;42.984;20.336;2023-04-20T02:18:29;205.30;6502.40
55331;DHT22;58851;42.984;20.336;2023-04-20T02:20:57;205.30;486.40
55331;DHT22;58851;42.984;20.336;2023-04-20T02:23:23;205.20;6502.40
55331;DHT22;58851;42.984;20.336;2023-04-20T02:25:49;205.20;6502.40
55331;DHT22;58851;42.984;20.336;2023-04-20T02:28:15;205.20;6502.40
55331;DHT22;58851;42.984;20.336;2023-04-20T02:30:41;205.20;6502.40
55331;DHT22;58851;42.984;20.336;2023-04-20T02:33:08;205.30;6502.40
55331;DHT22;58851;42.984;20.336;2023-04-20T02:35:33;205.40;6502.40
55331;DHT22;58851;42.984;20.336;2023-04-20T02:37:59;205.40;6502.40
55331;DHT22;58851;42.984;20.336;2023-04-20T02:40:25;205.40;6502.40
55331;DHT22;58851;42.984;20.336;2023-04-20T02:42:51;205.50;6502.40
55331;DHT22;58851;42.984;20.336;2023-04-20T02:45:17;205.50;6502.40
55331;DHT22;58851;42.984;20.336;2023-04-20T02:47:42;205.50;6502.40
55331;DHT22;58851;42.984;20.336;2023-04-20T02:50:09;205.50;6502.40
55331;DHT22;58851;42.984;20.336;2023-04-20T02:52:35;205.50;6502.40
55331;DHT22;58851;42.984;20.336;2023-04-20T02:55:01;205.50;6502.40
55331;DHT22;58851;42.984;20.336;2023-04-20T02:57:27;205.50;6502.40
55331;DHT22;58851;42.984;20.336;2023-04-20T02:59:53;205.50;6502.40
55331;DHT22;58851;42.984;20.336;2023-04-20T03:02:19;205.40;6502.40
55331;DHT22;58851;42.984;20.336;2023-04-20T03:04:45;205.50;6502.40
55331;DHT22;58851;42.984;20.336;2023-04-20T03:07:10;205.50;6502.40
55331;DHT22;58851;42.984;20.336;2023-04-20T03:09:36;205.50;6502.40
55331;DHT22;58851;42.984;20.336;2023-04-20T03:12:03;205.50;6502.40
55331;DHT22;58851;42.984;20.336;2023-04-20T03:14:29;205.50;6502.40
55331;DHT22;58851;42.984;20.336;2023-04-20T03:16:56;205.40;6502.40
55331;DHT22;58851;42.984;20.336;2023-04-20T03:19:22;205.40;6502.40
55331;DHT22;58851;42.984;20.336;2023-04-20T03:21:47;205.30;6502.40
55331;DHT22;58851;42.984;20.336;2023-04-20T03:24:13;205.20;6502.40
55331;DHT22;58851;42.984;20.336;2023-04-20T03:26:39;205.20;6502.40
55331;DHT22;58851;42.984;20.336;2023-04-20T03:29:05;205.30;6502.40
55331;DHT22;58851;42.984;20.336;2023-04-20T03:31:31;205.30;6502.40
55331;DHT22;58851;42.984;20.336;2023-04-20T03:33:57;205.30;6502.40
55331;DHT22;58851;42.984;20.336;2023-04-20T03:36:23;205.30;6502.40
55331;DHT22;58851;42.984;20.336;2023-04-20T03:38:48;205.30;6502.40
55331;DHT22;58851;42.984;20.336;2023-04-20T03:41:14;205.30;6502.40
55331;DHT22;58851;42.984;20.336;2023-04-20T03:43:40;205.20;6502.40
55331;DHT22;58851;42.984;20.336;2023-04-20T03:46:06;205.10;6502.40
55331;DHT22;58851;42.984;20.336;2023-04-20T03:48:32;205.10;6502.40
55331;DHT22;58851;42.984;20.336;2023-04-20T03:50:58;205.10;6502.40
55331;DHT22;58851;42.984;20.336;2023-04-20T03:53:25;205.10;6502.40
55331;DHT22;58851;42.984;20.336;2023-04-20T03:55:53;205.10;6502.40
55331;DHT22;58851;42.984;20.336;2023-04-20T03:58:19;205.00;6502.40
55331;DHT22;58851;42.984;20.336;2023-04-20T04:00:45;205.00;6502.40
55331;DHT22;58851;42.984;20.336;2023-04-20T04:03:11;205.00;6502.40
55331;DHT22;58851;42.984;20.336;2023-04-20T04:05:37;205.10;6502.40
55331;DHT22;58851;42.984;20.336;2023-04-20T04:08:03;205.20;6502.40
55331;DHT22;58851;42.984;20.336;2023-04-20T04:10:29;205.30;6502.40
55331;DHT22;58851;42.984;20.336;2023-04-20T04:12:55;205.30;6502.40
55331;DHT22;58851;42.984;20.336;2023-04-20T04:15:21;205.30;332.80
55331;DHT22;58851;42.984;20.336;2023-04-20T04:17:47;205.30;460.80
55331;DHT22;58851;42.984;20.336;2023-04-20T04:20:13;205.40;384.00
55331;DHT22;58851;42.984;20.336;2023-04-20T04:22:40;205.40;230.40
55331;DHT22;58851;42.984;20.336;2023-04-20T04:25:06;205.50;486.40
55331;DHT22;58851;42.984;20.336;2023-04-20T04:27:32;205.50;6502.40
55331;DHT22;58851;42.984;20.336;2023-04-20T04:30:05;205.50;6502.40
55331;DHT22;58851;42.984;20.336;2023-04-20T04:32:30;205.60;6502.40
55331;DHT22;58851;42.984;20.336;2023-04-20T04:34:59;205.60;6502.40
55331;DHT22;58851;42.984;20.336;2023-04-20T04:37:26;205.60;6502.40
55331;DHT22;58851;42.984;20.336;2023-04-20T04:39:52;205.60;6502.40
55331;DHT22;58851;42.984;20.336;2023-04-20T04:42:18;205.70;6502.40
55331;DHT22;58851;42.984;20.336;2023-04-20T04:44:44;205.70;6502.40
55331;DHT22;58851;42.984;20.336;2023-04-20T04:47:10;205.70;6502.40
55331;DHT22;58851;42.984;20.336;2023-04-20T04:49:36;205.60;6502.40
55331;DHT22;58851;42.984;20.336;2023-04-20T04:52:02;205.70;6502.40
55331;DHT22;58851;42.984;20.336;2023-04-20T04:54:28;230.40;460.80
55331;DHT22;58851;42.984;20.336;2023-04-20T04:56:54;230.50;384.00
55331;DHT22;58851;42.984;20.336;2023-04-20T04:59:20;230.60;281.60
55331;DHT22;58851;42.984;20.336;2023-04-20T05:01:45;230.70;128.00
55331;DHT22;58851;42.984;20.336;2023-04-20T05:04:11;230.70;6502.40
55331;DHT22;58851;42.984;20.336;2023-04-20T05:06:37;230.80;128.00
55331;DHT22;58851;42.984;20.336;2023-04-20T05:09:03;230.90;6502.40
55331;DHT22;58851;42.984;20.336;2023-04-20T05:11:29;230.90;6502.40
55331;DHT22;58851;42.984;20.336;2023-04-20T05:13:56;230.90;6502.40
55331;DHT22;58851;42.984;20.336;2023-04-20T05:16:22;231.00;6502.40
55331;DHT22;58851;42.984;20.336;2023-04-20T05:18:47;230.90;6502.40
55331;DHT22;58851;42.984;20.336;2023-04-20T05:21:13;230.90;6502.40
55331;DHT22;58851;42.984;20.336;2023-04-20T05:23:39;230.90;6502.40
55331;DHT22;58851;42.984;20.336;2023-04-20T05:26:05;230.90;6502.40
55331;DHT22;58851;42.984;20.336;2023-04-20T05:28:32;231.00;6502.40
55331;DHT22;58851;42.984;20.336;2023-04-20T05:30:59;230.90;6502.40
55331;DHT22;58851;42.984;20.336;2023-04-20T05:33:25;230.90;6502.40
55331;DHT22;58851;42.984;20.336;2023-04-20T05:35:55;231.00;6502.40
55331;DHT22;58851;42.984;20.336;2023-04-20T05:38:21;231.00;6502.40
55331;DHT22;58851;42.984;20.336;2023-04-20T05:40:47;231.00;6502.40
55331;DHT22;58851;42.984;20.336;2023-04-20T05:43:13;230.90;6502.40
55331;DHT22;58851;42.984;20.336;2023-04-20T05:45:39;230.90;6502.40
55331;DHT22;58851;42.984;20.336;2023-04-20T05:48:05;230.90;6502.40
55331;DHT22;58851;42.984;20.336;2023-04-20T05:50:30;231.10;6502.40
55331;DHT22;58851;42.984;20.336;2023-04-20T05:52:56;231.10;6502.40
55331;DHT22;58851;42.984;20.336;2023-04-20T05:55:22;231.00;6502.40
55331;DHT22;58851;42.984;20.336;2023-04-20T05:57:48;231.20;6502.40
55331;DHT22;58851;42.984;20.336;2023-04-20T06:00:16;231.20;6502.40
55331;DHT22;58851;42.984;20.336;2023-04-20T06:02:42;231.30;6502.40
55331;DHT22;58851;42.984;20.336;2023-04-20T06:05:09;231.30;6502.40
55331;DHT22;58851;42.984;20.336;2023-04-20T06:07:36;231.20;6502.40
55331;DHT22;58851;42.984;20.336;2023-04-20T06:10:02;231.20;6502.40
55331;DHT22;58851;42.984;20.336;2023-04-20T06:12:28;231.30;6502.40
55331;DHT22;58851;42.984;20.336;2023-04-20T06:14:55;231.30;6502.40
55331;DHT22;58851;42.984;20.336;2023-04-20T06:17:21;256.00;6502.40
55331;DHT22;58851;42.984;20.336;2023-04-20T06:19:47;256.00;6502.40
55331;DHT22;58851;42.984;20.336;2023-04-20T06:22:13;256.10;6502.40
55331;DHT22;58851;42.984;20.336;2023-04-20T06:24:40;256.20;6502.40
55331;DHT22;58851;42.984;20.336;2023-04-20T06:27:09;256.30;6502.40
55331;DHT22;58851;42.984;20.336;2023-04-20T06:29:35;256.40;6502.40
55331;DHT22;58851;42.984;20.336;2023-04-20T06:32:01;256.50;6502.40
55331;DHT22;58851;42.984;20.336;2023-04-20T06:34:27;256.60;6502.40
55331;DHT22;58851;42.984;20.336;2023-04-20T06:36:53;256.70;6502.40
55331;DHT22;58851;42.984;20.336;2023-04-20T06:39:19;256.90;6502.40
55331;DHT22;58851;42.984;20.336;2023-04-20T06:41:45;281.60;6528.00
55331;DHT22;58851;42.984;20.336;2023-04-20T06:44:10;281.70;6528.00
55331;DHT22;58851;42.984;20.336;2023-04-20T06:46:36;281.70;6528.00
55331;DHT22;58851;42.984;20.336;2023-04-20T06:49:02;281.90;6528.00
55331;DHT22;58851;42.984;20.336;2023-04-20T06:51:28;282.00;6528.00
55331;DHT22;58851;42.984;20.336;2023-04-20T06:53:56;282.20;6528.00
55331;DHT22;58851;42.984;20.336;2023-04-20T06:56:22;282.30;6528.00
55331;DHT22;58851;42.984;20.336;2023-04-20T06:58:48;282.30;6528.00
55331;DHT22;58851;42.984;20.336;2023-04-20T07:01:13;307.20;128.00
55331;DHT22;58851;42.984;20.336;2023-04-20T07:03:39;307.20;128.00
55331;DHT22;58851;42.984;20.336;2023-04-20T07:06:05;307.40;128.00
55331;DHT22;58851;42.984;20.336;2023-04-20T07:08:32;307.40;128.00
55331;DHT22;58851;42.984;20.336;2023-04-20T07:10:58;307.40;128.00
55331;DHT22;58851;42.984;20.336;2023-04-20T07:13:24;307.40;128.00
55331;DHT22;58851;42.984;20.336;2023-04-20T07:15:51;307.70;128.00
55331;DHT22;58851;42.984;20.336;2023-04-20T07:18:16;307.70;128.00
55331;DHT22;58851;42.984;20.336;2023-04-20T07:20:43;307.80;128.00
55331;DHT22;58851;42.984;20.336;2023-04-20T07:23:09;307.70;128.00
55331;DHT22;58851;42.984;20.336;2023-04-20T07:25:34;307.80;128.00
55331;DHT22;58851;42.984;20.336;2023-04-20T07:28:00;307.90;128.00
55331;DHT22;58851;42.984;20.336;2023-04-20T07:30:26;307.80;128.00
55331;DHT22;58851;42.984;20.336;2023-04-20T07:32:52;307.90;128.00
55331;DHT22;58851;42.984;20.336;2023-04-20T07:35:18;308.00;128.00
55331;DHT22;58851;42.984;20.336;2023-04-20T07:37:43;308.00;128.00
55331;DHT22;58851;42.984;20.336;2023-04-20T07:40:10;307.90;128.00
55331;DHT22;58851;42.984;20.336;2023-04-20T07:42:35;307.90;128.00
55331;DHT22;58851;42.984;20.336;2023-04-20T07:45:05;307.90;128.00
55331;DHT22;58851;42.984;20.336;2023-04-20T07:47:35;307.80;128.00
55331;DHT22;58851;42.984;20.336;2023-04-20T07:50:01;307.90;128.00
55331;DHT22;58851;42.984;20.336;2023-04-20T07:52:27;308.10;128.00
55331;DHT22;58851;42.984;20.336;2023-04-20T07:54:54;308.00;128.00
55331;DHT22;58851;42.984;20.336;2023-04-20T07:57:22;332.80;128.00
55331;DHT22;58851;42.984;20.336;2023-04-20T07:59:48;333.10;486.40
55331;DHT22;58851;42.984;20.336;2023-04-20T08:02:14;333.20;460.80
55331;DHT22;58851;42.984;20.336;2023-04-20T08:04:40;333.30;128.00
55331;DHT22;58851;42.984;20.336;2023-04-20T08:07:06;333.50;128.00
55331;DHT22;58851;42.984;20.336;2023-04-20T08:09:32;333.60;486.40
55331;DHT22;58851;42.984;20.336;2023-04-20T08:11:58;333.60;128.00
55331;DHT22;58851;42.984;20.336;2023-04-20T08:14:24;358.40;128.00
55331;DHT22;58851;42.984;20.336;2023-04-20T08:16:50;358.40;128.00
55331;DHT22;58851;42.984;20.336;2023-04-20T08:19:16;358.60;128.00
55331;DHT22;58851;42.984;20.336;2023-04-20T08:21:42;358.80;128.00
55331;DHT22;58851;42.984;20.336;2023-04-20T08:24:08;359.00;128.00
55331;DHT22;58851;42.984;20.336;2023-04-20T08:26:34;358.90;128.00
55331;DHT22;58851;42.984;20.336;2023-04-20T08:29:01;359.00;128.00
55331;DHT22;58851;42.984;20.336;2023-04-20T08:31:27;359.30;128.00
55331;DHT22;58851;42.984;20.336;2023-04-20T08:33:53;359.30;128.00
55331;DHT22;58851;42.984;20.336;2023-04-20T08:36:19;359.30;128.00
55331;DHT22;58851;42.984;20.336;2023-04-20T08:38:53;384.00;128.00
55331;DHT22;58851;42.984;20.336;2023-04-20T08:41:19;384.10;128.00
55331;DHT22;58851;42.984;20.336;2023-04-20T08:43:45;384.30;128.00
55331;DHT22;58851;42.984;20.336;2023-04-20T08:46:13;384.30;128.00
55331;DHT22;58851;42.984;20.336;2023-04-20T08:48:41;384.60;128.00
55331;DHT22;58851;42.984;20.336;2023-04-20T08:51:10;384.20;128.00
55331;DHT22;58851;42.984;20.336;2023-04-20T08:53:36;359.30;128.00
55331;DHT22;58851;42.984;20.336;2023-04-20T08:56:02;358.90;128.00
55331;DHT22;58851;42.984;20.336;2023-04-20T08:58:30;384.00;128.00
55331;DHT22;58851;42.984;20.336;2023-04-20T09:00:57;384.30;128.00
55331;DHT22;58851;42.984;20.336;2023-04-20T09:03:34;384.30;128.00
55331;DHT22;58851;42.984;20.336;2023-04-20T09:06:00;384.30;128.00
55331;DHT22;58851;42.984;20.336;2023-04-20T09:08:38;384.30;128.00
55331;DHT22;58851;42.984;20.336;2023-04-20T09:11:05;384.70;128.00
55331;DHT22;58851;42.984;20.336;2023-04-20T09:13:31;384.60;128.00
55331;DHT22;58851;42.984;20.336;2023-04-20T09:16:08;384.30;128.00
55331;DHT22;58851;42.984;20.336;2023-04-20T09:18:35;384.60;128.00
55331;DHT22;58851;42.984;20.336;2023-04-20T09:21:08;384.40;128.00
55331;DHT22;58851;42.984;20.336;2023-04-20T09:23:34;384.60;128.00
55331;DHT22;58851;42.984;20.336;2023-04-20T09:25:59;384.70;128.00
55331;DHT22;58851;42.984;20.336;2023-04-20T09:28:35;384.90;128.00
55331;DHT22;58851;42.984;20.336;2023-04-20T09:31:03;384.90;128.00
55331;DHT22;58851;42.984;20.336;2023-04-20T09:33:30;409.60;128.00
55331;DHT22;58851;42.984;20.336;2023-04-20T09:36:03;384.80;128.00
55331;DHT22;58851;42.984;20.336;2023-04-20T09:38:29;409.60;128.00
55331;DHT22;58851;42.984;20.336;2023-04-20T09:40:58;409.60;128.00
55331;DHT22;58851;42.984;20.336;2023-04-20T09:43:27;409.70;128.00
55331;DHT22;58851;42.984;20.336;2023-04-20T09:45:54;409.90;128.00
55331;DHT22;58851;42.984;20.336;2023-04-20T09:48:21;410.00;128.00
55331;DHT22;58851;42.984;20.336;2023-04-20T09:50:47;409.90;128.00
55331;DHT22;58851;42.984;20.336;2023-04-20T09:53:17;409.60;128.00
55331;DHT22;58851;42.984;20.336;2023-04-20T09:55:45;384.70;128.00
55331;DHT22;58851;42.984;20.336;2023-04-20T09:58:13;384.30;128.00
55331;DHT22;58851;42.984;20.336;2023-04-20T10:00:40;384.30;128.00
55331;DHT22;58851;42.984;20.336;2023-04-20T10:03:06;384.30;128.00
55331;DHT22;58851;42.984;20.336;2023-04-20T10:05:35;384.40;128.00
55331;DHT22;58851;42.984;20.336;2023-04-20T10:08:02;384.20;128.00
55331;DHT22;58851;42.984;20.336;2023-04-20T10:10:28;384.00;128.00
55331;DHT22;58851;42.984;20.336;2023-04-20T10:12:56;359.10;128.00
55331;DHT22;58851;42.984;20.336;2023-04-20T10:15:23;358.50;128.00
55331;DHT22;58851;42.984;20.336;2023-04-20T10:17:52;358.50;128.00
55331;DHT22;58851;42.984;20.336;2023-04-20T10:20:24;358.60;128.00
55331;DHT22;58851;42.984;20.336;2023-04-20T10:22:51;358.60;128.00
55331;DHT22;58851;42.984;20.336;2023-04-20T10:25:23;358.60;128.00
55331;DHT22;58851;42.984;20.336;2023-04-20T10:30:19;358.50;128.00
55331;DHT22;58851;42.984;20.336;2023-04-20T10:32:45;358.60;128.00
55331;DHT22;58851;42.984;20.336;2023-04-20T10:35:11;358.70;128.00
55331;DHT22;58851;42.984;20.336;2023-04-20T10:37:56;358.90;128.00
55331;DHT22;58851;42.984;20.336;2023-04-20T10:40:25;359.10;128.00
55331;DHT22;58851;42.984;20.336;2023-04-20T10:42:51;359.30;128.00
55331;DHT22;58851;42.984;20.336;2023-04-20T10:45:17;384.00;128.00
55331;DHT22;58851;42.984;20.336;2023-04-20T10:47:43;384.20;128.00
55331;DHT22;58851;42.984;20.336;2023-04-20T10:50:11;384.50;128.00
55331;DHT22;58851;42.984;20.336;2023-04-20T10:52:40;384.70;128.00
55331;DHT22;58851;42.984;20.336;2023-04-20T10:55:17;384.70;128.00
55331;DHT22;58851;42.984;20.336;2023-04-20T10:57:44;409.60;128.00
55331;DHT22;58851;42.984;20.336;2023-04-20T11:00:17;409.70;128.00
55331;DHT22;58851;42.984;20.336;2023-04-20T11:02:48;409.80;128.00
55331;DHT22;58851;42.984;20.336;2023-04-20T11:05:15;409.80;128.00
55331;DHT22;58851;42.984;20.336;2023-04-20T11:10:18;410.20;128.00
55331;DHT22;58851;42.984;20.336;2023-04-20T11:12:45;410.20;128.00
55331;DHT22;58851;42.984;20.336;2023-04-20T11:15:11;410.20;128.00
55331;DHT22;58851;42.984;20.336;2023-04-20T11:17:38;410.40;128.00
55331;DHT22;58851;42.984;20.336;2023-04-20T11:20:12;410.20;128.00
55331;DHT22;58851;42.984;20.336;2023-04-20T11:22:43;410.30;128.00
55331;DHT22;58851;42.984;20.336;2023-04-20T11:25:10;410.20;128.00
55331;DHT22;58851;42.984;20.336;2023-04-20T11:27:37;410.40;128.00
55331;DHT22;58851;42.984;20.336;2023-04-20T11:30:04;410.50;128.00
55331;DHT22;58851;42.984;20.336;2023-04-20T11:32:31;410.50;128.00
55331;DHT22;58851;42.984;20.336;2023-04-20T11:34:59;435.30;128.00
55331;DHT22;58851;42.984;20.336;2023-04-20T11:37:26;435.20;128.00
55331;DHT22;58851;42.984;20.336;2023-04-20T11:40:00;435.50;128.00
55331;DHT22;58851;42.984;20.336;2023-04-20T11:42:25;435.50;128.00
55331;DHT22;58851;42.984;20.336;2023-04-20T11:44:52;435.70;128.00
55331;DHT22;58851;42.984;20.336;2023-04-20T11:47:18;435.80;128.00
55331;DHT22;58851;42.984;20.336;2023-04-20T11:49:44;435.80;128.00
55331;DHT22;58851;42.984;20.336;2023-04-20T11:52:10;435.80;128.00
55331;DHT22;58851;42.984;20.336;2023-04-20T11:54:36;435.80;128.00
55331;DHT22;58851;42.984;20.336;2023-04-20T11:57:02;435.90;128.00
55331;DHT22;58851;42.984;20.336;2023-04-20T11:59:28;436.00;128.00
55331;DHT22;58851;42.984;20.336;2023-04-20T12:01:53;435.90;128.00
55331;DHT22;58851;42.984;20.336;2023-04-20T12:04:19;436.00;128.00
55331;DHT22;58851;42.984;20.336;2023-04-20T12:06:46;435.90;128.00
55331;DHT22;58851;42.984;20.336;2023-04-20T12:09:11;436.00;128.00
55331;DHT22;58851;42.984;20.336;2023-04-20T12:11:38;436.10;128.00
55331;DHT22;58851;42.984;20.336;2023-04-20T12:14:03;436.10;128.00
55331;DHT22;58851;42.984;20.336;2023-04-20T12:16:29;435.90;128.00
55331;DHT22;58851;42.984;20.336;2023-04-20T12:18:55;436.00;128.00
55331;DHT22;58851;42.984;20.336;2023-04-20T12:21:21;435.90;128.00
55331;DHT22;58851;42.984;20.336;2023-04-20T12:23:47;435.90;128.00
55331;DHT22;58851;42.984;20.336;2023-04-20T12:26:15;460.80;128.00
55331;DHT22;58851;42.984;20.336;2023-04-20T12:28:41;461.30;128.00
55331;DHT22;58851;42.984;20.336;2023-04-20T12:31:09;461.40;128.00
55331;DHT22;58851;42.984;20.336;2023-04-20T12:33:34;461.20;128.00
55331;DHT22;58851;42.984;20.336;2023-04-20T12:36:00;461.20;128.00
55331;DHT22;58851;42.984;20.336;2023-04-20T12:38:26;461.00;128.00
55331;DHT22;58851;42.984;20.336;2023-04-20T12:40:52;461.30;128.00
55331;DHT22;58851;42.984;20.336;2023-04-20T12:43:17;461.50;128.00
55331;DHT22;58851;42.984;20.336;2023-04-20T12:45:43;486.40;128.00
55331;DHT22;58851;42.984;20.336;2023-04-20T12:48:10;461.70;128.00
55331;DHT22;58851;42.984;20.336;2023-04-20T12:50:36;486.40;128.00
55331;DHT22;58851;42.984;20.336;2023-04-20T12:53:02;486.60;128.00
55331;DHT22;58851;42.984;20.336;2023-04-20T12:55:28;486.60;128.00
55331;DHT22;58851;42.984;20.336;2023-04-20T12:57:54;486.50;128.00
55331;DHT22;58851;42.984;20.336;2023-04-20T13:00:19;486.40;128.00
55331;DHT22;58851;42.984;20.336;2023-04-20T13:02:46;461.50;128.00
55331;DHT22;58851;42.984;20.336;2023-04-20T13:05:12;461.70;128.00
55331;DHT22;58851;42.984;20.336;2023-04-20T13:07:37;461.70;128.00
55331;DHT22;58851;42.984;20.336;2023-04-20T13:10:03;486.40;128.00
55331;DHT22;58851;42.984;20.336;2023-04-20T13:12:30;461.70;128.00
55331;DHT22;58851;42.984;20.336;2023-04-20T13:14:56;461.60;128.00
55331;DHT22;58851;42.984;20.336;2023-04-20T13:17:22;461.40;128.00
55331;DHT22;58851;42.984;20.336;2023-04-20T13:19:48;460.90;128.00
55331;DHT22;58851;42.984;20.336;2023-04-20T13:22:15;435.80;128.00
55331;DHT22;58851;42.984;20.336;2023-04-20T13:24:41;435.60;128.00
55331;DHT22;58851;42.984;20.336;2023-04-20T13:27:07;435.30;128.00
55331;DHT22;58851;42.984;20.336;2023-04-20T13:29:33;435.60;128.00
55331;DHT22;58851;42.984;20.336;2023-04-20T13:32:00;435.50;128.00
55331;DHT22;58851;42.984;20.336;2023-04-20T13:34:26;435.40;128.00
55331;DHT22;58851;42.984;20.336;2023-04-20T13:36:52;435.50;128.00
55331;DHT22;58851;42.984;20.336;2023-04-20T13:39:18;435.60;128.00
55331;DHT22;58851;42.984;20.336;2023-04-20T13:41:46;435.80;128.00
55331;DHT22;58851;42.984;20.336;2023-04-20T13:44:13;435.90;128.00
55331;DHT22;58851;42.984;20.336;2023-04-20T13:46:44;436.10;128.00
55331;DHT22;58851;42.984;20.336;2023-04-20T13:49:10;435.90;128.00
55331;DHT22;58851;42.984;20.336;2023-04-20T13:51:39;435.50;128.00
55331;DHT22;58851;42.984;20.336;2023-04-20T13:54:05;435.50;128.00
55331;DHT22;58851;42.984;20.336;2023-04-20T13:56:32;435.40;128.00
55331;DHT22;58851;42.984;20.336;2023-04-20T13:58:58;435.50;128.00
55331;DHT22;58851;42.984;20.336;2023-04-20T14:01:24;435.40;128.00
55331;DHT22;58851;42.984;20.336;2023-04-20T14:03:51;410.10;128.00
55331;DHT22;58851;42.984;20.336;2023-04-20T14:06:18;409.70;128.00
55331;DHT22;58851;42.984;20.336;2023-04-20T14:08:44;384.90;128.00
55331;DHT22;58851;42.984;20.336;2023-04-20T14:11:10;409.60;128.00
55331;DHT22;58851;42.984;20.336;2023-04-20T14:13:36;409.90;128.00
55331;DHT22;58851;42.984;20.336;2023-04-20T14:16:07;409.80;128.00
55331;DHT22;58851;42.984;20.336;2023-04-20T14:18:49;409.80;128.00
55331;DHT22;58851;42.984;20.336;2023-04-20T14:21:17;409.80;128.00
55331;DHT22;58851;42.984;20.336;2023-04-20T14:23:42;384.90;128.00
55331;DHT22;58851;42.984;20.336;2023-04-20T14:26:08;384.70;128.00
55331;DHT22;58851;42.984;20.336;2023-04-20T14:28:34;384.30;128.00
55331;DHT22;58851;42.984;20.336;2023-04-20T14:31:01;384.20;128.00
55331;DHT22;58851;42.984;20.336;2023-04-20T14:33:27;384.40;128.00
55331;DHT22;58851;42.984;20.336;2023-04-20T14:35:53;384.50;128.00
55331;DHT22;58851;42.984;20.336;2023-04-20T14:38:19;384.70;128.00
55331;DHT22;58851;42.984;20.336;2023-04-20T14:40:44;384.80;128.00
55331;DHT22;58851;42.984;20.336;2023-04-20T14:43:12;384.90;128.00
55331;DHT22;58851;42.984;20.336;2023-04-20T14:45:38;409.60;128.00